Time;durP1;ratioP1;P1;durP2;ratioP2;P2;SDS_P1;SDS_P2;PMS_P1;PMS_P2;Temp;Humidity;BMP_temperature;BMP_pressure;BME280_temperature;BME280_humidity;BME280_pressure;Samples;Min_cycle;Max_cycle;Signal;HPM_P1;HPM_P2
2021/06/17 00:00:21;;;;;;;8.20;4.20;;;;;;;17.13;74.95;94167.41;5102229;28;20024;-73
2021/06/17 00:02:48;;;;;;;7.03;3.63;;;;;;;17.12;75.00;94152.38;5098733;28;20027;-73
2021/06/17 00:05:15;;;;;;;6.40;3.63;;;;;;;17.10;75.17;94153.88;5106750;28;20490;-73
2021/06/17 00:07:41;;;;;;;6.65;4.10;;;;;;;17.06;75.36;94153.78;5102830;28;20035;-72
2021/06/17 00:10:10;;;;;;;7.00;4.18;;;;;;;17.06;75.65;94159.16;5104373;28;20418;-73
2021/06/17 00:12:36;;;;;;;6.35;4.00;;;;;;;17.04;75.47;94156.81;5102431;28;20040;-73
2021/06/17 00:15:05;;;;;;;7.97;4.18;;;;;;;17.02;75.73;94156.38;5099830;28;20031;-72
2021/06/17 00:17:30;;;;;;;9.38;4.68;;;;;;;17.01;75.88;94152.09;5105144;28;20046;-73
2021/06/17 00:19:56;;;;;;;5.28;3.65;;;;;;;17.00;75.46;94161.31;5096818;28;20123;-73
2021/06/17 00:22:21;;;;;;;5.93;3.90;;;;;;;16.93;75.39;94150.34;5100587;28;20049;-72
2021/06/17 00:24:46;;;;;;;6.75;4.10;;;;;;;16.91;75.46;94158.00;5102142;28;20024;-72
2021/06/17 00:27:12;;;;;;;6.15;3.83;;;;;;;16.92;75.04;94148.81;5103144;28;20023;-72
2021/06/17 00:29:37;;;;;;;7.40;3.28;;;;;;;16.89;74.50;94144.09;5098382;28;20512;-72
2021/06/17 00:32:03;;;;;;;10.50;2.97;;;;;;;16.83;74.57;94146.28;5104264;28;20028;-72
2021/06/17 00:34:29;;;;;;;9.80;3.83;;;;;;;16.76;74.70;94143.38;5102335;28;20027;-72
2021/06/17 00:36:54;;;;;;;6.55;3.40;;;;;;;16.73;74.22;94143.25;5102735;28;20208;-72
2021/06/17 00:39:20;;;;;;;5.70;3.22;;;;;;;16.67;74.30;94141.94;5104506;28;20023;-72
2021/06/17 00:41:45;;;;;;;8.73;3.78;;;;;;;16.56;74.61;94134.38;5101711;28;20054;-72
2021/06/17 00:44:10;;;;;;;6.35;3.60;;;;;;;16.48;75.04;94134.53;5098924;28;20031;-73
2021/06/17 00:46:36;;;;;;;6.80;3.58;;;;;;;16.43;74.67;94127.50;5127045;27;20024;-72
2021/06/17 00:49:05;;;;;;;7.60;3.35;;;;;;;16.38;74.85;94125.81;5106477;28;20028;-72
2021/06/17 00:51:31;;;;;;;7.00;3.78;;;;;;;16.35;75.09;94131.91;5107974;28;20059;-72
2021/06/17 00:53:56;;;;;;;7.95;3.60;;;;;;;16.33;75.03;94136.06;5100634;28;20472;-72
2021/06/17 00:56:23;;;;;;;6.25;3.22;;;;;;;16.33;74.41;94134.16;5102553;28;20024;-72
2021/06/17 00:58:48;;;;;;;13.10;4.00;;;;;;;16.28;74.47;94130.91;5101265;28;20067;-72
2021/06/17 01:01:14;;;;;;;8.15;3.78;;;;;;;16.17;74.78;94130.63;5106679;28;20039;-72
2021/06/17 01:03:40;;;;;;;9.48;4.15;;;;;;;16.12;75.48;94128.97;5103529;28;20474;-72
2021/06/17 01:06:06;;;;;;;5.35;3.88;;;;;;;16.03;75.63;94122.94;5100121;28;20483;-72
2021/06/17 01:08:40;;;;;;;7.25;4.53;;;;;;;15.93;75.89;94123.41;5096842;28;20050;-72
2021/06/17 01:11:17;;;;;;;8.43;4.65;;;;;;;15.89;76.11;94114.47;5096298;28;20056;-71
2021/06/17 01:14:17;;;;;;;12.38;5.28;;;;;;;15.88;76.42;94112.91;5100587;28;20082;-72
2021/06/17 01:16:53;;;;;;;10.00;5.10;;;;;;;15.86;76.45;94112.47;5097985;28;20114;-72
2021/06/17 01:19:30;;;;;;;8.93;4.43;;;;;;;15.84;76.31;94112.81;5104946;28;20435;-72
2021/06/17 01:22:15;;;;;;;5.38;3.75;;;;;;;15.79;75.91;94105.75;5094450;28;20062;-72
2021/06/17 01:24:44;;;;;;;6.13;4.10;;;;;;;15.73;75.81;94101.72;5099447;28;20020;-72
2021/06/17 01:27:21;;;;;;;6.63;4.28;;;;;;;15.68;76.17;94106.53;5110923;28;20351;-72
2021/06/17 01:29:54;;;;;;;6.22;4.18;;;;;;;15.66;76.74;94106.88;5101528;28;20030;-72
2021/06/17 01:32:23;;;;;;;5.63;3.67;;;;;;;15.68;76.30;94110.00;5094342;28;20031;-72
2021/06/17 01:34:50;;;;;;;7.88;3.75;;;;;;;15.68;76.00;94111.91;5110618;27;20044;-72
2021/06/17 01:37:19;;;;;;;4.90;3.33;;;;;;;15.63;75.87;94108.34;5100378;28;20024;-73
2021/06/17 01:39:46;;;;;;;6.95;3.30;;;;;;;15.60;75.94;94108.22;5109841;28;20023;-73
2021/06/17 01:42:13;;;;;;;8.23;3.33;;;;;;;15.65;75.46;94110.66;5106363;28;20057;-72
2021/06/17 01:44:39;;;;;;;4.70;3.05;;;;;;;15.67;75.29;94105.72;5102767;28;20041;-73
2021/06/17 01:47:06;;;;;;;4.97;2.88;;;;;;;15.63;75.13;94102.97;5098816;28;20031;-72
2021/06/17 01:49:36;;;;;;;9.45;3.08;;;;;;;15.62;75.20;94108.66;5094213;28;20118;-73
2021/06/17 01:52:03;;;;;;;5.05;3.22;;;;;;;15.61;75.15;94107.09;5106059;28;20501;-72
2021/06/17 01:54:30;;;;;;;8.07;3.63;;;;;;;15.58;74.73;94111.25;5102989;28;20032;-73
2021/06/17 01:56:59;;;;;;;4.75;2.75;;;;;;;15.54;74.43;94098.81;5108993;28;20475;-72
2021/06/17 01:59:27;;;;;;;5.05;2.95;;;;;;;15.51;74.86;94099.50;5107794;28;20024;-72
2021/06/17 02:01:56;;;;;;;6.10;3.78;;;;;;;15.50;75.19;94103.31;5098416;28;20048;-73
2021/06/17 02:04:27;;;;;;;7.60;3.63;;;;;;;15.47;75.37;94098.59;5101622;28;20489;-72
2021/06/17 02:06:54;;;;;;;7.70;4.40;;;;;;;15.43;75.58;94098.50;5092547;28;20028;-73
2021/06/17 02:09:23;;;;;;;9.27;4.05;;;;;;;15.45;75.65;94104.34;5097969;28;20019;-72
2021/06/17 02:11:49;;;;;;;5.47;3.67;;;;;;;15.40;75.63;94094.56;5103691;28;20101;-72
2021/06/17 02:14:15;;;;;;;6.70;3.78;;;;;;;15.43;75.63;94104.66;5106040;28;20031;-73
2021/06/17 02:16:43;;;;;;;13.65;3.92;;;;;;;15.44;75.27;94095.47;5107544;28;20102;-72
2021/06/17 02:19:11;;;;;;;12.32;3.33;;;;;;;15.41;75.26;94096.16;5096503;28;20407;-72
2021/06/17 02:21:37;;;;;;;5.20;3.03;;;;;;;15.41;75.25;94101.53;5106294;28;20538;-72
2021/06/17 02:24:08;;;;;;;5.38;2.90;;;;;;;15.39;75.16;94109.13;5100439;28;20020;-72
2021/06/17 02:26:33;;;;;;;8.18;3.42;;;;;;;15.36;75.27;94111.72;5093567;28;20045;-72
2021/06/17 02:29:02;;;;;;;6.25;3.05;;;;;;;15.35;74.92;94107.47;5101697;28;20028;-73
2021/06/17 02:31:30;;;;;;;10.38;3.00;;;;;;;15.35;74.92;94102.09;5096719;28;20020;-73
2021/06/17 02:33:55;;;;;;;6.75;3.05;;;;;;;15.35;74.51;94110.94;5102042;28;20027;-73
2021/06/17 02:36:26;;;;;;;9.55;3.03;;;;;;;15.33;74.72;94104.34;5099614;27;20085;-72
2021/06/17 02:38:55;;;;;;;6.93;3.63;;;;;;;15.34;74.74;94105.88;5094881;28;20024;-73
2021/06/17 02:41:24;;;;;;;7.00;2.80;;;;;;;15.34;74.27;94112.03;5099726;28;20054;-72
2021/06/17 02:43:53;;;;;;;4.05;3.00;;;;;;;15.31;74.64;94106.56;5096891;28;20149;-72
2021/06/17 02:46:21;;;;;;;4.90;2.80;;;;;;;15.32;74.44;94094.69;5109222;28;20134;-73
2021/06/17 02:48:46;;;;;;;5.63;3.13;;;;;;;15.32;74.28;94108.13;5106666;28;20120;-73
2021/06/17 02:51:12;;;;;;;8.57;3.15;;;;;;;15.32;74.00;94095.47;5098866;28;20107;-73
2021/06/17 02:53:37;;;;;;;4.47;2.72;;;;;;;15.31;74.14;94103.91;5097126;28;20020;-73
2021/06/17 02:56:11;;;;;;;5.65;2.90;;;;;;;15.29;74.08;94101.53;5090962;28;20479;-73
2021/06/17 02:59:04;;;;;;;4.63;2.97;;;;;;;15.28;74.18;94110.69;5093145;28;20088;-72
2021/06/17 03:01:42;;;;;;;9.10;2.45;;;;;;;15.29;73.87;94111.50;5094239;28;20032;-73
2021/06/17 03:04:45;;;;;;;5.00;2.42;;;;;;;15.24;73.83;94105.25;5096960;28;20399;-73
2021/06/17 03:07:20;;;;;;;7.07;2.80;;;;;;;15.27;73.76;94106.47;5094382;28;20096;-73
2021/06/17 03:09:47;;;;;;;6.38;2.60;;;;;;;15.24;73.80;94101.75;5107316;28;20028;-73
2021/06/17 03:12:16;;;;;;;7.82;3.03;;;;;;;15.29;73.96;94108.81;5107249;28;20130;-73
2021/06/17 03:14:45;;;;;;;3.88;2.40;;;;;;;15.31;73.87;94107.34;5110735;28;20038;-72
2021/06/17 03:17:12;;;;;;;5.28;2.80;;;;;;;15.31;73.84;94111.94;5114475;28;20035;-72
2021/06/17 03:19:37;;;;;;;5.15;3.25;;;;;;;15.34;73.91;94117.41;5099801;28;20024;-72
2021/06/17 03:22:07;;;;;;;6.10;3.00;;;;;;;15.34;73.62;94119.31;5098191;28;20076;-73
2021/06/17 03:24:37;;;;;;;5.82;2.75;;;;;;;15.34;74.01;94120.09;5103280;28;20024;-72
2021/06/17 03:27:04;;;;;;;5.55;2.90;;;;;;;15.36;74.01;94120.53;5095373;28;20024;-73
2021/06/17 03:29:34;;;;;;;6.70;2.85;;;;;;;15.40;74.15;94115.28;5103877;28;20031;-73
2021/06/17 03:32:01;;;;;;;5.18;2.75;;;;;;;15.43;74.33;94111.94;5104217;28;20097;-73
2021/06/17 03:34:28;;;;;;;5.97;2.80;;;;;;;15.47;74.32;94109.34;5101329;28;20042;-73
2021/06/17 03:36:56;;;;;;;5.90;3.03;;;;;;;15.49;74.49;94115.97;5107150;28;20038;-73
2021/06/17 03:39:22;;;;;;;4.28;2.70;;;;;;;15.52;74.53;94123.34;5094810;28;20028;-74
2021/06/17 03:41:49;;;;;;;8.50;3.20;;;;;;;15.57;74.73;94122.31;5093638;28;20030;-74
2021/06/17 03:44:16;;;;;;;4.65;3.08;;;;;;;15.60;74.69;94127.03;5093340;28;20028;-74
2021/06/17 03:46:42;;;;;;;6.75;3.33;;;;;;;15.67;74.40;94121.84;5093326;28;20027;-74
2021/06/17 03:49:09;;;;;;;6.05;2.65;;;;;;;15.72;74.26;94134.28;5093219;28;20047;-74
2021/06/17 03:51:37;;;;;;;6.90;3.35;;;;;;;15.81;73.99;94143.03;5092915;28;20031;-74
2021/06/17 03:54:05;;;;;;;4.75;3.28;;;;;;;15.88;73.88;94145.94;5093334;28;20479;-74
2021/06/17 03:56:31;;;;;;;7.38;3.33;;;;;;;15.96;73.83;94136.97;5091573;28;20115;-74
2021/06/17 03:58:56;;;;;;;7.30;3.67;;;;;;;16.05;74.13;94139.50;5093067;28;20108;-74
2021/06/17 04:01:23;;;;;;;9.98;4.60;;;;;;;16.16;73.87;94147.88;5092957;28;20076;-74
2021/06/17 04:03:50;;;;;;;14.30;5.78;;;;;;;16.20;73.81;94133.41;5092904;28;20046;-74
2021/06/17 04:06:17;;;;;;;7.30;4.20;;;;;;;16.28;74.09;94144.38;5092962;28;20024;-74
2021/06/17 04:08:50;;;;;;;8.50;5.20;;;;;;;16.34;73.93;94151.84;5091467;28;20085;-74
2021/06/17 04:11:18;;;;;;;11.13;5.68;;;;;;;16.40;73.69;94142.41;5091648;28;20402;-74
2021/06/17 04:13:44;;;;;;;12.75;4.97;;;;;;;16.45;73.16;94144.84;5091257;28;20491;-75
2021/06/17 04:16:15;;;;;;;10.02;5.82;;;;;;;16.49;73.42;94153.03;5098355;28;20077;-74
2021/06/17 04:18:43;;;;;;;8.90;5.32;;;;;;;16.50;74.06;94157.28;5112900;28;20051;-74
2021/06/17 04:21:10;;;;;;;8.18;4.80;;;;;;;16.50;73.92;94157.28;5112888;28;20444;-74
2021/06/17 04:23:37;;;;;;;8.85;4.38;;;;;;;16.49;74.43;94152.25;5112231;28;20032;-74
2021/06/17 04:26:03;;;;;;;11.25;5.25;;;;;;;16.47;73.69;94160.66;5128864;27;20076;-74
2021/06/17 04:28:30;;;;;;;12.18;5.88;;;;;;;16.45;74.26;94161.00;5112452;28;20453;-74
2021/06/17 04:30:57;;;;;;;7.00;4.70;;;;;;;16.45;74.26;94169.06;5112802;27;20055;-74
2021/06/17 04:33:25;;;;;;;9.27;6.25;;;;;;;16.52;73.98;94168.47;5111626;28;20387;-74
2021/06/17 04:35:58;;;;;;;10.77;5.38;;;;;;;16.63;73.87;94169.56;5128429;27;20452;-74
2021/06/17 04:38:24;;;;;;;13.00;5.20;;;;;;;16.70;73.88;94174.34;5112767;27;20020;-74
2021/06/17 04:40:51;;;;;;;10.60;5.93;;;;;;;16.80;74.07;94170.38;5111010;28;20018;-74
2021/06/17 04:43:21;;;;;;;20.98;7.90;;;;;;;16.91;74.16;94168.75;5112580;28;20168;-74
2021/06/17 04:45:48;;;;;;;10.88;6.85;;;;;;;17.00;73.80;94172.09;5110955;28;20020;-74
2021/06/17 04:48:15;;;;;;;16.58;7.40;;;;;;;17.10;73.44;94165.41;5111384;28;20023;-74
2021/06/17 04:50:41;;;;;;;9.50;7.20;;;;;;;17.19;72.69;94170.63;5110972;28;20023;-74
2021/06/17 04:53:08;;;;;;;16.33;7.18;;;;;;;17.27;72.85;94166.97;5111144;28;20022;-74
2021/06/17 04:55:35;;;;;;;13.02;7.45;;;;;;;17.32;73.11;94166.72;5111375;28;20120;-74
2021/06/17 04:58:00;;;;;;;13.57;7.68;;;;;;;17.41;73.09;94172.72;5112848;28;20163;-74
2021/06/17 05:00:26;;;;;;;14.73;7.20;;;;;;;17.51;72.77;94165.25;5112245;28;20035;-74
2021/06/17 05:02:51;;;;;;;12.50;7.63;;;;;;;17.59;72.39;94178.53;5110480;28;20460;-74
2021/06/17 05:05:16;;;;;;;10.35;6.82;;;;;;;17.62;72.17;94177.81;5112244;28;20031;-74
2021/06/17 05:12:55;;;;;;;15.48;8.30;;;;;;;17.50;71.64;94186.00;5110534;28;20050;-74
2021/06/17 05:15:20;;;;;;;18.88;7.85;;;;;;;17.47;71.72;94183.25;5111901;28;20028;-74
2021/06/17 05:17:46;;;;;;;14.43;8.48;;;;;;;17.45;72.75;94180.88;5112008;28;20023;-74
2021/06/17 05:20:12;;;;;;;18.20;8.30;;;;;;;17.43;72.68;94180.47;5110545;28;20035;-73
2021/06/17 05:22:40;;;;;;;18.63;8.75;;;;;;;17.47;72.68;94194.03;5111765;28;20466;-74
2021/06/17 05:25:06;;;;;;;14.60;8.70;;;;;;;17.55;73.13;94187.66;5107018;28;20044;-73
2021/06/17 05:27:32;;;;;;;16.65;9.27;;;;;;;17.56;72.68;94189.22;5091226;28;20384;-73
2021/06/17 05:29:57;;;;;;;22.33;10.55;;;;;;;17.60;72.99;94195.47;5090770;28;20455;-73
2021/06/17 05:32:24;;;;;;;21.95;9.50;;;;;;;17.66;72.92;94194.06;5089724;28;20503;-74
2021/06/17 05:34:50;;;;;;;14.88;10.10;;;;;;;17.68;72.81;94194.50;5092564;28;20032;-74
2021/06/17 05:37:15;;;;;;;14.25;9.65;;;;;;;17.67;73.11;94203.75;5095162;28;20502;-74
2021/06/17 05:39:41;;;;;;;10.85;9.00;;;;;;;17.74;73.57;94213.91;5090910;28;20028;-74
2021/06/17 05:42:07;;;;;;;21.88;9.18;;;;;;;17.81;73.72;94217.56;5089655;28;20089;-74
2021/06/17 05:44:33;;;;;;;13.90;8.52;;;;;;;17.94;72.94;94223.66;5089571;28;20107;-74
2021/06/17 05:46:58;;;;;;;14.27;8.32;;;;;;;18.04;72.02;94215.00;5090610;28;20035;-74
2021/06/17 05:49:24;;;;;;;16.70;9.30;;;;;;;18.09;70.67;94223.97;5098141;28;20085;-74
2021/06/17 05:51:51;;;;;;;12.25;8.45;;;;;;;18.10;71.30;94217.44;5109564;28;20080;-74
2021/06/17 05:54:17;;;;;;;17.02;9.68;;;;;;;18.18;71.42;94217.25;5111073;28;20079;-73
2021/06/17 05:56:42;;;;;;;15.63;9.57;;;;;;;18.31;71.58;94220.59;5109945;28;20095;-73
2021/06/17 05:59:09;;;;;;;21.30;8.98;;;;;;;18.41;71.24;94230.06;5110926;28;20027;-74
2021/06/17 06:01:34;;;;;;;15.15;9.68;;;;;;;18.48;71.02;94219.44;5110674;28;20098;-74
2021/06/17 06:04:00;;;;;;;18.55;9.60;;;;;;;18.55;70.60;94221.50;5111291;28;20527;-81
2021/06/17 06:06:25;;;;;;;26.88;9.75;;;;;;;18.62;70.68;94214.31;5107877;28;20016;-81
2021/06/17 06:08:51;;;;;;;14.00;10.23;;;;;;;18.67;70.20;94226.75;5105065;28;20028;-81
2021/06/17 06:11:16;;;;;;;16.35;9.93;;;;;;;18.68;69.60;94216.72;5107318;28;20024;-81
2021/06/17 06:13:42;;;;;;;18.63;9.98;;;;;;;18.74;70.10;94223.41;5109900;28;20043;-81
2021/06/17 06:16:08;;;;;;;18.10;11.23;;;;;;;18.80;69.85;94224.69;5107581;28;20020;-80
2021/06/17 06:18:34;;;;;;;16.83;10.55;;;;;;;18.83;70.25;94226.72;5097278;28;20091;-80
2021/06/17 06:21:15;;;;;;;21.40;11.00;;;;;;;18.89;69.72;94227.19;5103534;28;20034;-83
2021/06/17 06:23:41;;;;;;;19.30;10.20;;;;;;;18.90;69.28;94217.94;5103803;28;20086;-73
2021/06/17 06:26:07;;;;;;;18.17;10.25;;;;;;;18.93;69.01;94214.53;5102837;28;20469;-75
2021/06/17 06:28:32;;;;;;;13.73;9.52;;;;;;;18.95;68.14;94220.34;5104661;28;20015;-75
2021/06/17 06:30:58;;;;;;;15.23;9.05;;;;;;;18.96;68.99;94217.28;5098915;28;20071;-72
2021/06/17 06:33:23;;;;;;;25.67;9.45;;;;;;;18.95;68.69;94221.16;5104846;28;20073;-73
2021/06/17 06:35:49;;;;;;;19.25;8.63;;;;;;;19.06;68.55;94223.28;5102452;28;20039;-73
2021/06/17 06:38:15;;;;;;;15.80;9.15;;;;;;;19.09;68.93;94220.66;5092718;28;20055;-74
2021/06/17 06:40:41;;;;;;;16.63;10.02;;;;;;;19.11;68.22;94222.97;5101347;28;20019;-74
2021/06/17 06:43:09;;;;;;;15.90;8.20;;;;;;;19.23;68.22;94225.50;5098305;28;20482;-73
2021/06/17 06:45:34;;;;;;;16.08;9.07;;;;;;;19.36;68.10;94228.84;5098101;28;20110;-73
2021/06/17 06:48:00;;;;;;;13.30;8.90;;;;;;;19.50;67.60;94220.16;5103682;28;20081;-73
2021/06/17 06:50:26;;;;;;;15.50;8.02;;;;;;;19.57;65.42;94214.88;5104976;28;20024;-75
2021/06/17 06:52:52;;;;;;;13.68;8.13;;;;;;;19.54;64.86;94215.59;5101169;28;20475;-75
2021/06/17 06:55:18;;;;;;;21.30;9.85;;;;;;;19.59;65.50;94223.41;5094974;28;20089;-74
2021/06/17 06:57:44;;;;;;;13.82;7.85;;;;;;;19.59;66.71;94226.91;5091215;28;20036;-75
2021/06/17 07:00:12;;;;;;;18.02;8.15;;;;;;;19.70;66.47;94221.69;5093539;28;20052;-75
2021/06/17 07:02:38;;;;;;;19.13;7.80;;;;;;;19.81;65.83;94228.06;5099273;28;20034;-76
2021/06/17 07:05:05;;;;;;;11.70;7.13;;;;;;;19.92;65.49;94235.56;5094665;28;20028;-75
2021/06/17 07:07:30;;;;;;;19.50;8.48;;;;;;;20.02;65.11;94232.22;5100645;28;20024;-73
2021/06/17 07:09:56;;;;;;;16.45;8.32;;;;;;;20.15;64.41;94230.91;5091507;28;20024;-76
2021/06/17 07:12:21;;;;;;;15.52;8.07;;;;;;;20.19;63.78;94230.94;5098808;28;20108;-79
2021/06/17 07:14:48;;;;;;;11.40;7.82;;;;;;;20.26;63.18;94230.28;5098807;28;20028;-81
2021/06/17 07:17:13;;;;;;;12.32;6.88;;;;;;;20.38;62.44;94230.03;5101048;28;20115;-79
2021/06/17 07:19:39;;;;;;;11.82;6.47;;;;;;;20.41;61.79;94232.81;5098091;28;20131;-78
2021/06/17 07:22:04;;;;;;;15.13;6.97;;;;;;;20.51;61.08;94230.59;5101787;28;20494;-81
2021/06/17 07:24:30;;;;;;;11.60;7.10;;;;;;;20.59;60.16;94237.69;5097768;28;20472;-80
2021/06/17 07:26:55;;;;;;;11.02;5.70;;;;;;;20.56;59.64;94230.28;5090389;28;20399;-77
2021/06/17 07:29:21;;;;;;;12.40;5.20;;;;;;;20.64;59.70;94227.31;5091287;28;20036;-79
2021/06/17 07:31:47;;;;;;;11.93;6.28;;;;;;;20.77;59.65;94230.56;5095065;28;20039;-80
2021/06/17 07:34:12;;;;;;;11.13;5.90;;;;;;;20.89;59.66;94229.56;5098996;28;20080;-79
2021/06/17 07:36:39;;;;;;;12.23;5.70;;;;;;;20.98;59.58;94232.72;5090827;28;20039;-82
2021/06/17 07:39:06;;;;;;;14.95;5.40;;;;;;;21.11;59.30;94237.94;5108168;28;20031;-81
2021/06/17 07:41:32;;;;;;;13.70;5.00;;;;;;;21.22;57.86;94226.03;5094141;28;20027;-80
2021/06/17 07:43:58;;;;;;;8.27;4.32;;;;;;;21.26;55.75;94225.31;5092270;28;20020;-80
2021/06/17 07:46:24;;;;;;;7.07;3.97;;;;;;;21.11;57.05;94224.38;5104744;28;20035;-80
2021/06/17 07:48:49;;;;;;;12.43;4.15;;;;;;;21.19;58.09;94220.59;5087685;28;20032;-80
2021/06/17 07:51:15;;;;;;;6.28;3.15;;;;;;;21.16;54.90;94224.03;5087979;28;20156;-81
2021/06/17 07:53:40;;;;;;;12.45;3.90;;;;;;;21.28;56.74;94223.78;5100245;28;20063;-81
2021/06/17 07:56:06;;;;;;;7.75;4.68;;;;;;;21.36;56.21;94217.25;5108158;28;20186;-78
2021/06/17 07:58:32;;;;;;;11.30;3.72;;;;;;;21.51;55.65;94220.13;5105552;28;20045;-78
2021/06/17 08:00:57;;;;;;;15.35;4.15;;;;;;;21.63;55.54;94220.63;5104933;28;20059;-79
2021/06/17 08:03:22;;;;;;;12.80;3.38;;;;;;;21.74;54.81;94218.03;5094644;28;20475;-82
2021/06/17 08:05:48;;;;;;;5.72;3.00;;;;;;;21.84;53.46;94222.75;5091477;28;20072;-77
2021/06/17 08:08:13;;;;;;;9.30;3.50;;;;;;;21.92;52.42;94228.22;5093115;28;20027;-80
2021/06/17 08:10:40;;;;;;;11.45;3.60;;;;;;;21.96;54.34;94229.03;5108153;28;20123;-81
2021/06/17 08:13:06;;;;;;;8.13;3.33;;;;;;;22.00;53.46;94227.13;5104939;28;20081;-82
2021/06/17 08:15:32;;;;;;;6.80;3.75;;;;;;;22.05;51.65;94226.78;5110457;28;20025;-82
2021/06/17 08:17:57;;;;;;;8.30;2.88;;;;;;;22.10;51.24;94212.06;5102369;28;20107;-81
2021/06/17 08:20:22;;;;;;;7.10;2.60;;;;;;;22.14;51.05;94213.66;5128156;27;20003;-81
2021/06/17 08:22:48;;;;;;;6.32;2.90;;;;;;;22.20;52.72;94212.13;5109083;28;20463;-81
2021/06/17 08:25:14;;;;;;;8.07;2.72;;;;;;;22.29;50.50;94213.75;5111350;28;20051;-81
2021/06/17 08:27:40;;;;;;;6.03;3.28;;;;;;;22.42;50.79;94215.00;5105666;28;20023;-78
2021/06/17 08:30:11;;;;;;;6.90;2.60;;;;;;;22.47;50.23;94206.50;5106823;28;20081;-80
2021/06/17 08:32:37;;;;;;;7.20;2.17;;;;;;;22.57;46.62;94210.41;5104302;28;20487;-80
2021/06/17 08:35:04;;;;;;;7.97;2.05;;;;;;;22.66;46.00;94202.72;5091039;28;20031;-78
2021/06/17 08:37:30;;;;;;;4.22;1.85;;;;;;;22.80;45.12;94207.44;5092141;28;20035;-80
2021/06/17 08:39:56;;;;;;;6.15;2.28;;;;;;;22.87;45.54;94204.72;5090821;28;20106;-79
2021/06/17 08:42:29;;;;;;;7.97;2.67;;;;;;;22.88;46.94;94200.06;5097978;28;20019;-79
2021/06/17 08:44:59;;;;;;;3.40;2.10;;;;;;;22.87;45.58;94203.97;5108011;28;20125;-83
2021/06/17 08:47:25;;;;;;;8.75;2.28;;;;;;;22.88;47.43;94217.16;5097583;28;20028;-82
2021/06/17 08:49:52;;;;;;;5.90;2.47;;;;;;;22.87;48.52;94204.72;5097797;28;20073;-81
2021/06/17 08:52:19;;;;;;;4.45;2.40;;;;;;;22.86;46.43;94205.91;5098610;28;20081;-82
2021/06/17 08:54:46;;;;;;;5.70;2.20;;;;;;;22.91;48.02;94210.97;5108576;28;20110;-83
2021/06/17 08:57:13;;;;;;;4.82;2.75;;;;;;;22.89;48.62;94205.13;5092674;28;20086;-79
2021/06/17 08:59:41;;;;;;;6.03;2.28;;;;;;;22.89;48.37;94196.97;5100228;28;20036;-83
2021/06/17 09:02:07;;;;;;;9.02;1.83;;;;;;;22.95;46.23;94206.31;5108493;28;20042;-83
2021/06/17 09:04:33;;;;;;;7.28;2.10;;;;;;;23.03;45.11;94204.44;5093132;28;20023;-82
2021/06/17 09:07:03;;;;;;;5.28;2.30;;;;;;;23.13;44.88;94195.53;5106956;28;20020;-82
2021/06/17 09:09:48;;;;;;;4.28;2.67;;;;;;;23.21;44.50;94201.75;5101992;28;20128;-80
2021/06/17 09:12:20;;;;;;;9.00;2.05;;;;;;;23.22;44.82;94195.16;5095654;28;20652;-83
2021/06/17 09:14:53;;;;;;;;;;;;;;;23.26;42.95;94187.78;5106440;28;20410;-83
2021/06/17 09:17:19;;;;;;;5.03;2.15;;;;;;;23.24;43.11;94192.81;5091335;28;19923;-80
2021/06/17 09:19:50;;;;;;;2.72;1.60;;;;;;;23.25;42.77;94180.78;5100589;28;20031;-79
2021/06/17 09:22:18;;;;;;;2.90;1.98;;;;;;;23.35;42.78;94174.59;5102706;28;20028;-82
2021/06/17 09:24:46;;;;;;;3.92;1.90;;;;;;;23.38;43.41;94173.81;5091942;28;20031;-83
2021/06/17 09:27:38;;;;;;;4.38;1.85;;;;;;;23.50;43.35;94164.50;5092345;28;20031;-84
2021/06/17 09:30:10;;;;;;;12.55;2.30;;;;;;;23.60;42.84;94179.25;5096496;28;20396;-81
2021/06/17 09:32:38;;;;;;;5.15;2.22;;;;;;;23.53;41.90;94169.16;5097263;28;20028;-81
2021/06/17 09:35:24;;;;;;;2.80;1.50;;;;;;;23.54;42.00;94176.16;5105471;28;20130;-77
2021/06/17 09:37:58;;;;;;;3.22;1.55;;;;;;;23.56;41.51;94167.59;5100355;28;20050;-81
2021/06/17 09:40:38;;;;;;;2.78;1.75;;;;;;;23.55;42.30;94168.75;5097802;28;20028;-81
2021/06/17 09:43:19;;;;;;;2.20;1.50;;;;;;;23.55;40.60;94172.28;5103363;28;20031;-80
2021/06/17 09:45:50;;;;;;;2.72;1.63;;;;;;;23.63;41.56;94159.47;5103631;28;20028;-80
2021/06/17 09:48:42;;;;;;;4.28;1.58;;;;;;;23.73;39.84;94160.59;5088793;28;20058;-79
2021/06/17 09:51:33;;;;;;;3.30;1.50;;;;;;;23.77;39.74;94154.03;5102286;28;20028;-79
2021/06/17 09:54:09;;;;;;;2.47;1.27;;;;;;;23.88;41.63;94153.25;5104510;28;20107;-82
2021/06/17 09:56:37;;;;;;;7.22;1.80;;;;;;;23.98;40.37;94157.91;5105272;28;20019;-81
2021/06/17 09:59:04;;;;;;;5.32;1.63;;;;;;;24.09;39.77;94147.75;5106593;28;20459;-81
2021/06/17 10:01:37;;;;;;;5.78;2.28;;;;;;;24.12;38.67;94144.25;5093566;28;20022;-80
2021/06/17 10:04:05;;;;;;;5.35;2.20;;;;;;;24.21;40.00;94158.22;5090776;28;20028;-77
2021/06/17 10:06:33;;;;;;;4.35;1.63;;;;;;;24.35;38.15;94143.78;5094476;28;20023;-82
2021/06/17 10:08:59;;;;;;;5.30;1.80;;;;;;;24.43;37.87;94148.03;5094773;28;20035;-82
2021/06/17 10:11:25;;;;;;;2.55;1.40;;;;;;;24.51;36.90;94137.94;5099942;28;20166;-80
2021/06/17 10:13:51;;;;;;;2.40;1.58;;;;;;;24.61;37.76;94134.38;5099732;28;20035;-81
2021/06/17 10:16:18;;;;;;;2.47;1.35;;;;;;;24.78;39.24;94131.97;5099654;28;20028;-84
2021/06/17 10:18:47;;;;;;;2.90;1.60;;;;;;;24.88;37.91;94133.88;5093701;28;20499;-81
2021/06/17 10:21:14;;;;;;;6.90;1.90;;;;;;;25.00;38.02;94138.09;5100814;28;20502;-81
2021/06/17 10:23:49;;;;;;;6.72;2.08;;;;;;;25.10;37.10;94126.34;5101114;28;20552;-80
2021/06/17 10:26:19;;;;;;;3.72;1.80;;;;;;;25.19;36.80;94137.56;5099403;28;20031;-81
2021/06/17 10:28:52;;;;;;;4.93;1.67;;;;;;;25.12;39.02;94136.84;5099028;28;20019;-81
2021/06/17 10:31:36;;;;;;;7.65;2.08;;;;;;;25.10;39.07;94133.75;5102663;28;20027;-83
2021/06/17 10:34:28;;;;;;;3.28;1.75;;;;;;;24.98;39.52;94133.03;5097101;28;20119;-88
2021/06/17 10:37:12;;;;;;;;;;;;;;;24.77;37.36;94133.13;5107179;28;20019;-85
2021/06/17 10:39:52;;;;;;;4.13;1.55;;;;;;;24.72;35.90;94120.72;5102455;28;19973;-86
2021/06/17 10:42:26;;;;;;;3.85;1.73;;;;;;;24.73;36.34;94126.94;5104974;28;20020;-84
2021/06/17 10:44:57;;;;;;;13.13;1.95;;;;;;;24.81;36.90;94118.34;5105586;28;20447;-85
2021/06/17 10:47:47;;;;;;;4.93;1.73;;;;;;;25.00;38.98;94113.56;5106933;28;20084;-83
2021/06/17 10:50:19;;;;;;;7.75;1.65;;;;;;;25.18;37.25;94111.47;5095732;28;20029;-86
2021/06/17 10:52:46;;;;;;;4.35;1.75;;;;;;;25.46;38.03;94103.50;5102506;28;20030;-85
2021/06/17 10:55:17;;;;;;;10.52;2.08;;;;;;;25.65;37.30;94102.19;5102378;28;20047;-82
2021/06/17 10:57:52;;;;;;;8.85;1.95;;;;;;;25.78;36.03;94108.69;5117845;27;20024;-84
2021/06/17 11:00:30;;;;;;;3.28;1.77;;;;;;;25.83;34.71;94100.06;5109161;28;20028;-85
2021/06/17 11:02:58;;;;;;;4.90;1.77;;;;;;;25.81;35.08;94099.69;5099308;28;20042;-83
2021/06/17 11:05:30;;;;;;;3.47;1.60;;;;;;;25.73;35.88;94098.22;5100333;28;20510;-83
2021/06/17 11:08:17;;;;;;;5.07;1.70;;;;;;;25.56;34.62;94099.91;5101354;28;20028;-85
2021/06/17 11:10:52;;;;;;;4.78;1.67;;;;;;;25.45;35.96;94101.97;5100782;28;20042;-84
2021/06/17 11:13:28;;;;;;;7.43;3.13;;;;;;;25.43;35.04;94088.72;5093575;28;20500;-84
2021/06/17 11:16:27;;;;;;;2.45;1.52;;;;;;;25.39;33.20;94086.00;5093079;28;20036;-84
2021/06/17 11:21:23;;;;;;;3.40;1.85;;;;;;;25.78;36.12;94090.34;5095846;28;20020;-84
2021/06/17 11:24:19;;;;;;;9.10;1.77;;;;;;;25.99;34.05;94086.66;5097671;28;20040;-81
2021/06/17 11:26:50;;;;;;;3.30;1.73;;;;;;;26.37;34.66;94081.16;5098015;28;20088;-84
2021/06/17 11:29:20;;;;;;;3.30;1.63;;;;;;;26.69;30.93;94087.44;5096763;28;20026;-83
2021/06/17 11:31:54;;;;;;;7.70;1.50;;;;;;;26.81;32.00;94084.91;5098076;28;20069;-83
2021/06/17 11:34:50;;;;;;;3.75;1.88;;;;;;;26.88;31.12;94075.84;5103358;28;20059;-84
2021/06/17 11:37:16;;;;;;;4.68;1.50;;;;;;;26.86;31.10;94085.66;5088682;28;20032;-84
2021/06/17 11:39:41;;;;;;;6.20;1.23;;;;;;;26.77;29.52;94086.16;5109036;28;20024;-84
2021/06/17 11:42:20;;;;;;;2.35;1.40;;;;;;;26.75;29.52;94077.59;5107195;28;20378;-83
2021/06/17 11:45:06;;;;;;;4.78;1.30;;;;;;;26.88;28.33;94075.06;5096338;28;20111;-84
2021/06/17 11:47:32;;;;;;;4.22;1.52;;;;;;;27.05;31.11;94067.78;5097553;28;20088;-83